Time;durP1;ratioP1;P1;durP2;ratioP2;P2;SDS_P1;SDS_P2;PMS_P1;PMS_P2;Temp;Humidity;BMP_temperature;BMP_pressure;BME280_temperature;BME280_humidity;BME280_pressure;Samples;Min_cycle;Max_cycle;Signal;HPM_P1;HPM_P2
2023/05/02 00:00:31;;;;;;;2.75;2.55;;;12.20;99.90;;;;;;5058098;28;20217;-72
2023/05/02 00:02:58;;;;;;;2.53;2.42;;;12.20;99.90;;;;;;5055051;28;22674;-74
2023/05/02 00:05:26;;;;;;;2.97;2.78;;;12.10;99.90;;;;;;5055049;28;20289;-70
2023/05/02 00:07:53;;;;;;;2.95;2.75;;;12.20;99.90;;;;;;5054581;28;20829;-72
2023/05/02 00:10:20;;;;;;;3.00;2.80;;;12.10;99.90;;;;;;5059788;28;20252;-70
2023/05/02 00:12:48;;;;;;;2.63;2.50;;;12.20;99.90;;;;;;5052621;28;20311;-71
2023/05/02 00:15:15;;;;;;;2.85;2.65;;;12.20;99.90;;;;;;5055713;28;20285;-71
2023/05/02 00:17:42;;;;;;;2.70;2.50;;;12.20;99.90;;;;;;5056652;28;20234;-71
2023/05/02 00:20:10;;;;;;;3.10;2.90;;;12.20;99.90;;;;;;5055386;28;20620;-72
2023/05/02 00:22:38;;;;;;;3.05;2.30;;;12.10;99.90;;;;;;5055758;28;20264;-70
2023/05/02 00:25:06;;;;;;;2.50;2.40;;;12.10;99.90;;;;;;5056627;28;20293;-69
2023/05/02 00:27:33;;;;;;;2.97;2.78;;;12.10;99.90;;;;;;5054420;28;20958;-69
2023/05/02 00:30:02;;;;;;;2.58;2.47;;;12.10;99.90;;;;;;5056805;28;20623;-71
2023/05/02 00:32:28;;;;;;;3.00;2.80;;;12.10;99.90;;;;;;5058347;28;20218;-73
2023/05/02 00:34:58;;;;;;;2.70;2.50;;;12.00;99.90;;;;;;5059683;28;20198;-70
2023/05/02 00:37:27;;;;;;;2.80;2.60;;;12.10;99.90;;;;;;5057724;28;20697;-70
2023/05/02 00:39:54;;;;;;;2.97;2.78;;;12.10;99.90;;;;;;5058714;28;20194;-70
2023/05/02 00:42:21;;;;;;;3.08;2.88;;;12.10;99.90;;;;;;5061941;28;20214;-73
2023/05/02 00:44:48;;;;;;;2.67;2.58;;;12.10;99.90;;;;;;5060406;28;20294;-69
2023/05/02 00:47:16;;;;;;;3.20;3.00;;;12.10;99.90;;;;;;5061038;28;20206;-68
2023/05/02 00:49:44;;;;;;;3.05;2.85;;;12.10;99.90;;;;;;5058944;28;20199;-67
2023/05/02 00:52:11;;;;;;;3.03;2.85;;;12.10;99.90;;;;;;5061738;28;20217;-70
2023/05/02 00:54:38;;;;;;;3.13;2.92;;;12.10;99.90;;;;;;5059579;28;20260;-67
2023/05/02 00:57:05;;;;;;;2.78;2.58;;;12.10;99.90;;;;;;5063528;28;20209;-67
2023/05/02 00:59:33;;;;;;;3.25;3.05;;;12.10;99.90;;;;;;5060746;28;20683;-67
2023/05/02 01:02:10;;;;;;;3.10;2.83;;;12.00;99.90;;;;;;5061642;28;20264;-67
2023/05/02 01:04:45;;;;;;;3.05;2.70;;;12.00;99.90;;;;;;5060398;28;20209;-69
2023/05/02 01:07:30;;;;;;;2.90;2.65;;;12.00;99.90;;;;;;5061781;28;20245;-70
2023/05/02 01:10:07;;;;;;;2.67;2.55;;;11.90;99.90;;;;;;5061312;28;20190;-66
2023/05/02 01:12:41;;;;;;;2.60;2.47;;;11.80;99.90;;;;;;5062786;28;20272;-67
2023/05/02 01:15:12;;;;;;;2.40;2.20;;;11.70;99.90;;;;;;5063092;28;20772;-67
2023/05/02 01:17:40;;;;;;;2.63;2.25;;;11.70;99.90;;;;;;5057272;28;20671;-68
2023/05/02 01:20:13;;;;;;;2.53;2.40;;;11.80;99.90;;;;;;5054815;28;20281;-67
2023/05/02 01:22:41;;;;;;;2.53;2.40;;;11.80;99.90;;;;;;5059868;28;20226;-66
2023/05/02 01:25:26;;;;;;;2.90;2.70;;;11.80;99.90;;;;;;5062054;28;20214;-68
2023/05/02 01:28:04;;;;;;;4.18;2.83;;;11.70;99.90;;;;;;5055329;28;20351;-70
2023/05/02 01:30:34;;;;;;;18.85;3.47;;;11.70;99.90;;;;;;5064082;28;20214;-67
2023/05/02 01:33:03;;;;;;;4.47;3.40;;;11.70;99.90;;;;;;5061429;28;20854;-67
2023/05/02 01:35:32;;;;;;;3.60;3.40;;;11.60;99.90;;;;;;5061253;28;20916;-67
2023/05/02 01:38:02;;;;;;;4.97;3.50;;;11.50;99.90;;;;;;5062242;28;20285;-68
2023/05/02 01:40:29;;;;;;;3.38;3.17;;;11.40;99.90;;;;;;5067138;28;20297;-69
2023/05/02 01:42:58;;;;;;;3.50;3.30;;;11.30;99.90;;;;;;5065622;28;20218;-67
2023/05/02 01:45:26;;;;;;;3.53;3.33;;;11.20;99.90;;;;;;5066869;28;20198;-68
2023/05/02 01:47:55;;;;;;;2.78;2.60;;;11.20;99.90;;;;;;5066438;28;20267;-70
2023/05/02 01:50:25;;;;;;;3.33;3.05;;;11.10;99.90;;;;;;5061547;28;20255;-70
2023/05/02 01:52:54;;;;;;;2.65;2.45;;;11.10;99.90;;;;;;5059145;28;20230;-69
2023/05/02 01:55:24;;;;;;;3.40;3.20;;;11.10;99.90;;;;;;5058575;28;20253;-71
2023/05/02 01:57:53;;;;;;;2.70;2.60;;;11.00;99.90;;;;;;5055822;28;20293;-71
2023/05/02 02:00:22;;;;;;;2.88;2.67;;;11.00;99.90;;;;;;5061881;28;20261;-75
2023/05/02 02:02:51;;;;;;;3.28;3.08;;;11.00;99.90;;;;;;5056987;28;20245;-69
2023/05/02 02:05:20;;;;;;;3.20;3.00;;;11.00;99.90;;;;;;5060875;28;20214;-71
2023/05/02 02:07:47;;;;;;;4.05;3.75;;;11.00;99.90;;;;;;5060597;28;20218;-72
2023/05/02 02:10:14;;;;;;;3.05;2.90;;;11.00;99.90;;;;;;5060622;28;20202;-71
2023/05/02 02:12:43;;;;;;;2.92;2.72;;;11.00;99.90;;;;;;5058082;28;20265;-69
2023/05/02 02:15:21;;;;;;;2.75;2.65;;;10.90;99.90;;;;;;5060680;28;20247;-73
2023/05/02 02:17:55;;;;;;;2.72;2.63;;;10.90;99.90;;;;;;5057853;28;20198;-76
2023/05/02 02:20:23;;;;;;;2.45;2.33;;;10.90;99.90;;;;;;5062751;28;20200;-73
2023/05/02 02:22:52;;;;;;;2.40;2.30;;;10.90;99.90;;;;;;5058439;28;20268;-70
2023/05/02 02:25:20;;;;;;;2.40;2.30;;;10.80;99.90;;;;;;5059791;28;20256;-69
2023/05/02 02:27:48;;;;;;;2.15;2.05;;;10.80;99.90;;;;;;5059490;28;20252;-71
2023/05/02 02:30:15;;;;;;;2.03;1.92;;;10.80;99.90;;;;;;5062883;28;20206;-71
2023/05/02 02:32:42;;;;;;;2.13;2.03;;;10.70;99.90;;;;;;5054786;28;20226;-69
2023/05/02 02:35:11;;;;;;;2.30;2.20;;;10.70;99.90;;;;;;5056916;28;20710;-71
2023/05/02 02:37:45;;;;;;;1.67;1.67;;;10.80;99.90;;;;;;5057035;28;20226;-71
2023/05/02 02:40:19;;;;;;;2.22;2.08;;;10.70;99.90;;;;;;5058770;28;20255;-72
2023/05/02 02:42:57;;;;;;;2.03;1.92;;;10.70;99.90;;;;;;5055849;28;20635;-72
2023/05/02 02:45:32;;;;;;;1.90;1.80;;;10.80;99.90;;;;;;5058787;28;20237;-70
2023/05/02 02:48:08;;;;;;;1.77;1.67;;;10.80;99.90;;;;;;5057950;28;20253;-69
2023/05/02 02:55:42;;;;;;;2.38;2.22;;;10.80;99.90;;;;;;5074898;28;20206;-70
2023/05/02 02:58:20;;;;;;;2.42;2.28;;;10.80;99.90;;;;;;5078401;28;21441;-70
2023/05/02 03:00:49;;;;;;;2.10;2.00;;;10.80;99.90;;;;;;5076784;28;20258;-70
2023/05/02 03:03:18;;;;;;;2.33;2.22;;;10.80;99.90;;;;;;5057668;28;20210;-69
2023/05/02 03:05:45;;;;;;;2.17;2.08;;;10.70;99.90;;;;;;5057929;28;20292;-73
2023/05/02 03:08:13;;;;;;;1.83;1.73;;;10.70;99.90;;;;;;5061010;28;20310;-70
2023/05/02 03:10:41;;;;;;;1.98;1.88;;;10.70;99.90;;;;;;5055615;28;20194;-69
2023/05/02 03:13:08;;;;;;;2.00;1.90;;;10.60;99.90;;;;;;5058533;28;20285;-73
2023/05/02 03:16:14;;;;;;;2.17;2.08;;;10.60;99.90;;;;;;5057418;28;20259;-70
2023/05/02 03:18:42;;;;;;;1.88;1.77;;;10.60;99.90;;;;;;5063040;28;20221;-70
2023/05/02 03:21:09;;;;;;;2.20;2.00;;;10.60;99.90;;;;;;5063591;28;20311;-78
2023/05/02 03:23:36;;;;;;;1.52;1.52;;;10.50;99.90;;;;;;5063544;28;20927;-69
2023/05/02 03:26:05;;;;;;;2.22;2.13;;;10.50;99.90;;;;;;5057997;28;20202;-70
2023/05/02 03:28:31;;;;;;;1.95;1.85;;;10.50;99.90;;;;;;5060827;28;20313;-70
2023/05/02 03:30:58;;;;;;;1.90;1.80;;;10.60;99.90;;;;;;5059728;28;20936;-75
2023/05/02 03:33:25;;;;;;;2.08;1.98;;;10.50;99.90;;;;;;5057379;28;20779;-71
2023/05/02 03:35:52;;;;;;;1.75;1.70;;;10.60;99.90;;;;;;5060060;28;20270;-75
2023/05/02 03:38:19;;;;;;;1.48;1.48;;;10.50;99.90;;;;;;5059068;28;20277;-71
2023/05/02 03:40:46;;;;;;;1.60;1.60;;;10.50;99.90;;;;;;5062787;28;20709;-70
2023/05/02 03:43:14;;;;;;;2.30;1.63;;;10.60;99.90;;;;;;5059219;28;20203;-73
2023/05/02 03:45:41;;;;;;;1.65;1.58;;;10.50;99.90;;;;;;5063761;28;20255;-74
2023/05/02 03:48:08;;;;;;;1.80;1.70;;;10.50;99.90;;;;;;5058679;28;20241;-69
2023/05/02 03:50:35;;;;;;;1.98;1.88;;;10.50;99.90;;;;;;5058131;28;20802;-72
2023/05/02 03:53:02;;;;;;;2.10;2.00;;;10.50;99.90;;;;;;5055927;28;20701;-70
2023/05/02 03:55:29;;;;;;;1.90;1.80;;;10.60;99.90;;;;;;5060780;28;20202;-72
2023/05/02 03:57:56;;;;;;;1.90;1.80;;;10.60;99.90;;;;;;5056020;28;20322;-70
2023/05/02 04:00:24;;;;;;;1.70;1.70;;;10.60;99.90;;;;;;5061169;28;20797;-70
2023/05/02 04:02:51;;;;;;;1.50;1.50;;;10.60;99.90;;;;;;5055323;28;20646;-71
2023/05/02 04:05:18;;;;;;;1.90;1.80;;;10.70;99.90;;;;;;5060310;28;20255;-72
2023/05/02 04:07:46;;;;;;;1.80;1.70;;;10.80;99.90;;;;;;5065544;28;20624;-76
2023/05/02 04:10:15;;;;;;;1.50;1.40;;;10.80;99.90;;;;;;5066089;28;20213;-70
2023/05/02 04:12:42;;;;;;;1.50;1.50;;;10.80;99.90;;;;;;5064998;28;20253;-70
2023/05/02 04:15:10;;;;;;;1.95;1.85;;;10.90;99.90;;;;;;5065705;28;20765;-70
2023/05/02 04:17:39;;;;;;;1.83;1.80;;;10.90;99.90;;;;;;5065510;28;20356;-70
2023/05/02 04:20:07;;;;;;;2.03;1.92;;;11.00;99.90;;;;;;5060324;28;20916;-74
2023/05/02 04:22:34;;;;;;;1.73;1.63;;;10.90;99.90;;;;;;5069245;28;20279;-69
2023/05/02 04:25:01;;;;;;;2.55;1.85;;;10.90;99.90;;;;;;5062165;28;20202;-71
2023/05/02 04:27:27;;;;;;;2.10;2.00;;;10.90;99.90;;;;;;5065650;28;20289;-70
2023/05/02 04:29:55;;;;;;;2.20;2.10;;;10.80;99.90;;;;;;5064855;28;20221;-72
2023/05/02 04:32:22;;;;;;;2.78;2.58;;;10.80;99.90;;;;;;5058091;28;20228;-73
2023/05/02 04:34:50;;;;;;;2.22;2.10;;;10.70;99.90;;;;;;5065934;28;20259;-69
2023/05/02 04:37:18;;;;;;;2.42;2.33;;;10.60;99.90;;;;;;5064866;28;20206;-74
2023/05/02 04:39:45;;;;;;;2.22;2.03;;;10.60;99.90;;;;;;5059250;28;20197;-70
2023/05/02 04:42:12;;;;;;;1.42;1.42;;;10.60;99.90;;;;;;5064043;28;20222;-72
2023/05/02 04:44:38;;;;;;;1.90;1.80;;;10.60;99.90;;;;;;5057436;28;20234;-70
2023/05/02 04:47:05;;;;;;;2.00;1.90;;;10.70;99.90;;;;;;5059566;28;20255;-69
2023/05/02 04:49:32;;;;;;;1.90;1.80;;;10.70;99.90;;;;;;5058396;28;20253;-70
2023/05/02 04:52:01;;;;;;;1.80;1.70;;;10.70;99.90;;;;;;5061724;28;20764;-71
2023/05/02 04:54:28;;;;;;;1.75;1.65;;;10.80;99.90;;;;;;5060399;28;20251;-70
2023/05/02 04:56:55;;;;;;;1.88;1.77;;;10.80;99.90;;;;;;5063642;28;20202;-72
2023/05/02 04:59:22;;;;;;;1.73;1.67;;;10.80;99.90;;;;;;5060449;28;20796;-69
2023/05/02 05:01:49;;;;;;;1.70;1.70;;;10.80;99.90;;;;;;5061969;28;20703;-70
2023/05/02 05:04:16;;;;;;;1.80;1.70;;;10.90;99.90;;;;;;5062868;28;20206;-72
2023/05/02 05:06:43;;;;;;;2.08;1.98;;;11.00;99.90;;;;;;5066877;28;20289;-69
2023/05/02 05:09:11;;;;;;;2.03;1.92;;;11.00;99.90;;;;;;5063020;28;20237;-71
2023/05/02 05:11:38;;;;;;;2.30;2.20;;;11.10;99.90;;;;;;5059786;28;20305;-70
2023/05/02 05:14:05;;;;;;;1.90;1.80;;;11.10;99.90;;;;;;5063548;28;20567;-73
2023/05/02 05:16:32;;;;;;;1.75;1.65;;;11.00;99.90;;;;;;5061446;28;20315;-74
2023/05/02 05:18:59;;;;;;;1.90;1.80;;;11.10;99.90;;;;;;5064952;28;20282;-69
2023/05/02 05:21:27;;;;;;;2.00;1.90;;;11.10;99.90;;;;;;5063502;28;20762;-74
2023/05/02 05:23:54;;;;;;;1.80;1.70;;;11.20;99.90;;;;;;5062370;28;20267;-73
2023/05/02 05:26:24;;;;;;;1.70;1.70;;;11.20;99.90;;;;;;5062015;28;20620;-73
2023/05/02 05:28:51;;;;;;;1.77;1.73;;;11.30;99.90;;;;;;5062652;28;20219;-70
2023/05/02 05:31:18;;;;;;;1.70;1.60;;;11.30;99.90;;;;;;5063032;28;20230;-74
2023/05/02 05:33:45;;;;;;;1.73;1.63;;;11.40;99.90;;;;;;5063272;28;20267;-69
2023/05/02 05:36:13;;;;;;;1.73;1.63;;;11.40;99.90;;;;;;5066445;28;20198;-73
2023/05/02 05:38:40;;;;;;;1.90;1.80;;;11.40;99.90;;;;;;5062255;28;20288;-71
2023/05/02 05:41:07;;;;;;;1.70;1.70;;;11.40;99.90;;;;;;5060520;28;20276;-69
2023/05/02 05:43:36;;;;;;;1.95;1.85;;;11.40;99.90;;;;;;5061703;28;20199;-70
2023/05/02 05:46:03;;;;;;;1.92;1.83;;;11.40;99.90;;;;;;5063089;28;20628;-72
2023/05/02 05:48:30;;;;;;;1.55;1.45;;;11.40;99.90;;;;;;5059854;28;20214;-70
2023/05/02 05:50:57;;;;;;;1.80;1.70;;;11.50;99.90;;;;;;5067559;28;20218;-71
2023/05/02 05:53:24;;;;;;;1.63;1.52;;;11.50;99.90;;;;;;5063030;28;20241;-71
2023/05/02 05:55:51;;;;;;;1.80;1.70;;;11.50;99.90;;;;;;5058765;28;20233;-70
2023/05/02 05:58:18;;;;;;;1.40;1.40;;;11.60;99.90;;;;;;5065167;28;20643;-70
2023/05/02 06:00:46;;;;;;;1.80;1.70;;;11.60;99.90;;;;;;5059502;28;20766;-72
2023/05/02 06:03:13;;;;;;;1.33;1.33;;;11.70;99.90;;;;;;5063024;28;20197;-73
2023/05/02 06:05:40;;;;;;;2.25;2.05;;;11.80;99.90;;;;;;5063715;28;20233;-69
2023/05/02 06:08:07;;;;;;;1.80;1.70;;;11.90;99.90;;;;;;5059661;28;22004;-69
2023/05/02 06:10:34;;;;;;;1.75;1.65;;;11.90;99.90;;;;;;5067505;28;20970;-69
2023/05/02 06:13:01;;;;;;;2.00;1.90;;;11.90;99.90;;;;;;5058985;28;20265;-71
2023/05/02 06:15:28;;;;;;;1.80;1.75;;;11.80;99.90;;;;;;5066520;28;20770;-71
2023/05/02 06:17:56;;;;;;;1.40;1.40;;;11.80;99.90;;;;;;5059364;28;20202;-70
2023/05/02 06:20:23;;;;;;;1.45;1.45;;;11.90;99.90;;;;;;5056446;28;20698;-71
2023/05/02 06:30:29;;;;;;;1.30;1.30;;;12.00;99.90;;;;;;5069550;28;20946;-71
2023/05/02 06:32:57;;;;;;;1.42;1.42;;;12.10;99.90;;;;;;5055584;28;20223;-71
2023/05/02 06:35:24;;;;;;;1.67;1.60;;;12.10;99.90;;;;;;5055277;28;20206;-73
2023/05/02 06:37:51;;;;;;;1.60;1.50;;;12.10;99.90;;;;;;5052669;28;20201;-74
2023/05/02 06:40:18;;;;;;;1.50;1.50;;;12.10;99.90;;;;;;5053841;28;20776;-71
2023/05/02 06:42:45;;;;;;;1.65;1.55;;;12.00;99.90;;;;;;5052429;28;20226;-72
2023/05/02 06:45:12;;;;;;;1.65;1.55;;;12.00;99.90;;;;;;5054872;28;20195;-72
2023/05/02 06:47:39;;;;;;;1.88;1.77;;;12.00;99.90;;;;;;5055244;28;20225;-71
2023/05/02 06:50:09;;;;;;;2.85;2.22;;;12.00;99.90;;;;;;5052148;28;20553;-73
2023/05/02 06:52:36;;;;;;;3.38;2.53;;;12.20;99.90;;;;;;5051808;28;20250;-73
2023/05/02 06:55:02;;;;;;;6.47;4.05;;;12.50;99.90;;;;;;5049644;28;20289;-72
2023/05/02 06:57:29;;;;;;;3.90;3.40;;;12.80;99.90;;;;;;5046419;28;21405;-73
2023/05/02 06:59:56;;;;;;;3.63;2.90;;;13.00;99.90;;;;;;5049634;28;20201;-74
2023/05/02 07:02:23;;;;;;;4.32;2.72;;;13.10;99.90;;;;;;5047223;28;20234;-71
2023/05/02 07:04:50;;;;;;;2.53;2.33;;;13.20;99.90;;;;;;5053833;28;20282;-70
2023/05/02 07:07:20;;;;;;;2.50;2.08;;;13.30;99.90;;;;;;5054192;28;20238;-73
2023/05/02 07:09:47;;;;;;;2.80;1.73;;;13.30;99.90;;;;;;5052602;28;20300;-72
2023/05/02 07:12:14;;;;;;;1.77;1.67;;;13.40;99.90;;;;;;5052896;28;20222;-71
2023/05/02 07:14:42;;;;;;;2.15;2.05;;;13.20;99.90;;;;;;5049899;28;20988;-72
2023/05/02 07:17:09;;;;;;;1.80;1.70;;;13.10;99.90;;;;;;5049636;28;20195;-74
2023/05/02 07:19:36;;;;;;;1.73;1.63;;;13.00;99.90;;;;;;5048996;28;20196;-72
2023/05/02 07:22:03;;;;;;;1.48;1.38;;;13.00;99.90;;;;;;5055481;28;20291;-73
2023/05/02 07:24:33;;;;;;;2.10;1.90;;;13.00;99.90;;;;;;5056560;28;20233;-75
2023/05/02 07:27:00;;;;;;;1.40;1.40;;;13.00;99.90;;;;;;5054331;28;20201;-76
2023/05/02 07:29:27;;;;;;;1.50;1.40;;;12.90;99.90;;;;;;5051532;28;20245;-76
2023/05/02 07:31:54;;;;;;;1.38;1.38;;;12.80;99.90;;;;;;5053417;28;20271;-73
2023/05/02 07:34:21;;;;;;;1.50;1.40;;;12.70;99.90;;;;;;5050466;28;20281;-74
2023/05/02 07:36:48;;;;;;;1.80;1.70;;;12.70;99.90;;;;;;5051097;28;20233;-77
2023/05/02 07:39:15;;;;;;;1.45;1.38;;;12.80;99.90;;;;;;5052701;28;20328;-72
2023/05/02 07:41:43;;;;;;;1.77;1.67;;;12.90;99.90;;;;;;5051143;28;20283;-74
2023/05/02 07:44:12;;;;;;;1.48;1.45;;;13.10;99.90;;;;;;5051921;28;20281;-75
2023/05/02 07:46:39;;;;;;;1.73;1.63;;;13.10;99.90;;;;;;5053526;28;20354;-73
2023/05/02 07:49:06;;;;;;;1.60;1.50;;;13.20;99.90;;;;;;5050500;28;20204;-74
2023/05/02 07:51:33;;;;;;;1.38;1.38;;;13.30;99.90;;;;;;5053039;28;20312;-75
2023/05/02 07:54:00;;;;;;;1.58;1.48;;;13.40;99.90;;;;;;5055637;28;20233;-75
2023/05/02 07:56:27;;;;;;;1.92;1.83;;;13.50;99.90;;;;;;5052579;28;20202;-75
2023/05/02 07:58:56;;;;;;;1.55;1.45;;;13.50;99.90;;;;;;5051490;28;20935;-77
2023/05/02 08:01:22;;;;;;;1.52;1.42;;;13.50;99.90;;;;;;5054994;28;20834;-75
2023/05/02 08:03:49;;;;;;;1.50;1.50;;;13.60;99.90;;;;;;5052374;28;20195;-75
2023/05/02 08:06:16;;;;;;;1.58;1.27;;;13.70;99.90;;;;;;5053298;28;20282;-74
2023/05/02 08:08:43;;;;;;;1.90;1.80;;;13.90;99.90;;;;;;5056174;28;20198;-75
2023/05/02 08:11:10;;;;;;;1.55;1.45;;;14.00;99.90;;;;;;5050208;28;20218;-74
2023/05/02 08:13:37;;;;;;;1.70;1.60;;;14.10;99.90;;;;;;5050379;28;20198;-75
2023/05/02 08:16:06;;;;;;;1.60;1.50;;;14.20;99.90;;;;;;5052111;28;20251;-74
2023/05/02 08:18:33;;;;;;;1.50;1.40;;;14.30;99.90;;;;;;5052428;28;20715;-75
2023/05/02 08:21:00;;;;;;;1.60;1.50;;;14.40;99.90;;;;;;5055651;28;20260;-74
2023/05/02 08:23:27;;;;;;;1.60;1.50;;;14.50;99.90;;;;;;5053083;28;20198;-76
2023/05/02 08:25:54;;;;;;;1.33;1.17;;;14.60;99.90;;;;;;5054882;28;20232;-72
2023/05/02 08:28:21;;;;;;;1.35;1.35;;;14.60;99.90;;;;;;5057247;28;20200;-72
2023/05/02 08:30:48;;;;;;;1.75;1.65;;;14.70;99.90;;;;;;5057739;28;20264;-71
2023/05/02 08:33:16;;;;;;;1.20;1.20;;;14.90;99.90;;;;;;5054600;28;20679;-72
2023/05/02 08:35:43;;;;;;;1.60;1.50;;;15.10;99.90;;;;;;5057385;28;20233;-71
2023/05/02 08:38:10;;;;;;;1.98;1.85;;;15.20;99.90;;;;;;5056941;28;20201;-72
2023/05/02 08:40:38;;;;;;;1.60;1.50;;;15.30;99.90;;;;;;5055686;28;20190;-72
2023/05/02 08:43:05;;;;;;;1.58;1.48;;;15.30;99.90;;;;;;5054914;28;20238;-73
2023/05/02 08:45:38;;;;;;;1.45;1.38;;;15.30;99.90;;;;;;5055004;28;20209;-72
2023/05/02 08:48:09;;;;;;;1.70;1.60;;;15.20;99.90;;;;;;5052561;28;20269;-72
2023/05/02 08:50:40;;;;;;;1.58;1.48;;;15.30;99.90;;;;;;5053446;28;20218;-73
2023/05/02 08:53:09;;;;;;;1.52;1.50;;;15.40;99.90;;;;;;5055091;28;20195;-73
2023/05/02 08:55:38;;;;;;;1.70;1.60;;;15.40;99.90;;;;;;5058813;28;20561;-72
2023/05/02 08:58:06;;;;;;;1.25;1.25;;;15.40;99.90;;;;;;5056391;28;20298;-73
2023/05/02 09:00:35;;;;;;;1.95;1.85;;;15.50;99.90;;;;;;5060069;28;20203;-72
2023/05/02 09:03:10;;;;;;;1.60;1.50;;;15.60;99.90;;;;;;5065498;28;20244;-74
2023/05/02 09:05:41;;;;;;;1.52;1.42;;;15.70;99.90;;;;;;5060870;28;20224;-74
2023/05/02 09:08:09;;;;;;;1.50;1.40;;;15.80;99.90;;;;;;5056576;28;20212;-75
2023/05/02 09:10:36;;;;;;;2.28;1.90;;;15.90;99.90;;;;;;5056415;28;20280;-74
2023/05/02 09:13:29;;;;;;;2.15;1.35;;;15.90;99.90;;;;;;5054125;28;20194;-74
2023/05/02 09:15:58;;;;;;;1.50;1.40;;;16.00;99.90;;;;;;5056314;28;21988;-74
2023/05/02 09:18:28;;;;;;;2.10;1.63;;;16.10;99.90;;;;;;5054751;28;20205;-74
2023/05/02 09:20:58;;;;;;;2.47;1.80;;;16.20;99.90;;;;;;5054560;28;20320;-74
2023/05/02 09:23:33;;;;;;;1.30;1.30;;;16.30;99.90;;;;;;5054260;28;20202;-74
2023/05/02 09:26:00;;;;;;;1.48;1.38;;;16.50;99.90;;;;;;5050317;28;20201;-75
2023/05/02 09:28:39;;;;;;;1.20;1.20;;;16.60;99.90;;;;;;5051133;28;20210;-74
2023/05/02 09:31:08;;;;;;;1.52;1.42;;;16.60;99.90;;;;;;5054914;28;20228;-74
2023/05/02 09:33:35;;;;;;;1.17;1.17;;;16.80;99.90;;;;;;5056980;28;20206;-75
2023/05/02 09:36:03;;;;;;;1.20;1.20;;;17.10;99.90;;;;;;5054733;28;20285;-75
2023/05/02 09:38:31;;;;;;;1.48;1.38;;;17.30;99.90;;;;;;5055438;28;20230;-75
2023/05/02 09:40:58;;;;;;;1.23;1.23;;;17.40;99.90;;;;;;5054513;28;20219;-75
2023/05/02 09:43:25;;;;;;;1.33;1.30;;;17.40;99.90;;;;;;5053975;28;20230;-75
2023/05/02 09:46:00;;;;;;;1.25;1.13;;;17.50;99.90;;;;;;5057276;28;20957;-75
2023/05/02 09:48:28;;;;;;;1.40;1.30;;;17.60;99.90;;;;;;5057081;28;20233;-75
2023/05/02 09:50:55;;;;;;;1.25;1.15;;;17.70;99.90;;;;;;5053370;28;20555;-74
2023/05/02 09:53:25;;;;;;;1.35;1.33;;;17.80;99.90;;;;;;5053655;28;20452;-73
2023/05/02 09:56:00;;;;;;;1.10;1.10;;;17.80;99.90;;;;;;5055038;28;20790;-74
2023/05/02 09:58:27;;;;;;;1.48;1.38;;;17.80;99.90;;;;;;5048964;28;20205;-73
2023/05/02 10:00:55;;;;;;;1.30;1.30;;;17.70;99.90;;;;;;5054371;28;20697;-74
2023/05/02 10:03:24;;;;;;;2.20;1.40;;;17.50;99.90;;;;;;5056756;28;20299;-72
2023/05/02 10:05:53;;;;;;;1.48;1.38;;;17.30;99.90;;;;;;5054913;28;20686;-72
2023/05/02 10:08:21;;;;;;;1.35;1.30;;;17.10;99.90;;;;;;5051831;28;20866;-73
2023/05/02 10:10:52;;;;;;;1.27;1.27;;;17.10;99.90;;;;;;5053022;28;20221;-74
2023/05/02 10:13:23;;;;;;;1.15;1.15;;;17.10;99.90;;;;;;5053208;28;20190;-74
2023/05/02 10:15:58;;;;;;;1.30;1.30;;;17.00;99.90;;;;;;5055555;28;20410;-70
2023/05/02 10:18:29;;;;;;;1.30;1.27;;;16.90;99.90;;;;;;5052025;28;20198;-75
2023/05/02 10:21:00;;;;;;;1.40;1.30;;;16.90;99.90;;;;;;5057774;28;20395;-73
2023/05/02 10:23:29;;;;;;;1.10;1.10;;;17.00;99.90;;;;;;5055795;28;20781;-73
2023/05/02 10:25:58;;;;;;;1.27;1.27;;;16.90;99.90;;;;;;5057322;28;20430;-76
2023/05/02 10:28:28;;;;;;;1.10;1.10;;;16.90;99.90;;;;;;5056008;28;20242;-74
2023/05/02 10:30:58;;;;;;;1.20;1.20;;;16.90;99.90;;;;;;5056486;28;20601;-72
2023/05/02 10:33:25;;;;;;;1.85;1.20;;;17.00;99.90;;;;;;5052257;28;20296;-74
2023/05/02 10:35:52;;;;;;;1.42;1.33;;;17.10;99.90;;;;;;5059189;28;20202;-75
2023/05/02 10:38:21;;;;;;;1.48;1.38;;;17.10;99.90;;;;;;5049669;28;20203;-71
2023/05/02 10:40:54;;;;;;;1.33;1.23;;;17.00;99.90;;;;;;5053334;28;20741;-72
2023/05/02 10:43:27;;;;;;;1.38;1.33;;;16.90;99.90;;;;;;5050892;28;20609;-71
2023/05/02 10:45:54;;;;;;;1.85;1.25;;;16.70;99.90;;;;;;5053472;28;20654;-73
2023/05/02 10:48:23;;;;;;;1.23;1.23;;;16.70;99.90;;;;;;5050651;28;20246;-71
2023/05/02 10:50:52;;;;;;;1.20;1.20;;;16.80;99.90;;;;;;5054646;28;20224;-74
2023/05/02 10:53:23;;;;;;;1.33;1.33;;;16.80;99.90;;;;;;5055358;28;20198;-74
2023/05/02 10:56:09;;;;;;;1.17;1.17;;;16.80;99.90;;;;;;5058186;28;20808;-75
2023/05/02 10:58:37;;;;;;;1.45;1.35;;;17.00;99.90;;;;;;5055036;28;20210;-72
2023/05/02 11:01:38;;;;;;;1.13;1.13;;;17.10;99.90;;;;;;5051022;28;20698;-76
2023/05/02 11:04:07;;;;;;;1.20;1.20;;;17.20;99.90;;;;;;4979135;28;21005;-74
2023/05/02 11:06:36;;;;;;;2.55;1.50;;;17.30;99.90;;;;;;4971726;28;20301;-70
2023/05/02 11:09:32;;;;;;;1.52;1.30;;;17.40;99.90;;;;;;5012129;28;20943;-71
2023/05/02 11:12:00;;;;;;;1.65;1.55;;;17.40;99.90;;;;;;5057406;28;20220;-74
2023/05/02 11:14:51;;;;;;;2.78;1.60;;;17.40;99.90;;;;;;5054368;28;20225;-71
2023/05/02 11:17:19;;;;;;;1.20;1.20;;;17.40;99.90;;;;;;5052793;28;20286;-74
2023/05/02 11:20:23;;;;;;;1.63;1.52;;;17.50;99.90;;;;;;5049424;28;20213;-73
2023/05/02 11:22:50;;;;;;;1.10;1.10;;;17.50;99.90;;;;;;5049911;28;20402;-71
2023/05/02 11:25:35;;;;;;;1.13;1.00;;;17.40;99.90;;;;;;5054329;28;20234;-73
2023/05/02 11:28:02;;;;;;;1.40;1.30;;;17.60;99.90;;;;;;5049880;28;20629;-71
2023/05/02 11:30:47;;;;;;;1.00;1.00;;;17.70;99.90;;;;;;5057039;28;20302;-75
2023/05/02 11:33:18;;;;;;;3.50;1.33;;;17.90;99.90;;;;;;5051976;28;20201;-74
2023/05/02 11:35:49;;;;;;;1.30;1.20;;;17.90;99.90;;;;;;5053665;28;20195;-75
2023/05/02 11:38:21;;;;;;;1.30;1.20;;;18.00;99.90;;;;;;5052380;28;20249;-72
2023/05/02 11:40:58;;;;;;;2.03;1.17;;;18.10;99.90;;;;;;5054386;28;20194;-73
2023/05/02 11:43:28;;;;;;;1.30;1.20;;;18.20;99.90;;;;;;5055516;28;20216;-75
2023/05/02 11:45:58;;;;;;;1.10;1.10;;;18.30;99.90;;;;;;5054622;28;20222;-73
2023/05/02 11:48:27;;;;;;;1.00;1.00;;;18.20;99.90;;;;;;5053839;28;20892;-70
2023/05/02 11:50:56;;;;;;;1.10;1.10;;;18.00;99.90;;;;;;5050723;28;20221;-74
2023/05/02 11:53:24;;;;;;;1.25;1.25;;;18.00;99.90;;;;;;5046650;28;20191;-72
2023/05/02 11:55:53;;;;;;;1.30;1.20;;;17.90;99.90;;;;;;5047080;28;20438;-73
2023/05/02 11:58:22;;;;;;;0.90;0.90;;;17.90;99.90;;;;;;5049433;28;20221;-74
2023/05/02 12:00:51;;;;;;;1.00;1.00;;;17.90;99.90;;;;;;5046166;28;20186;-72
2023/05/02 12:03:28;;;;;;;0.90;0.90;;;17.90;99.90;;;;;;5048232;28;20241;-71
2023/05/02 12:05:55;;;;;;;0.80;0.80;;;17.90;99.90;;;;;;5052591;28;20253;-71
2023/05/02 12:08:24;;;;;;;1.65;1.00;;;18.10;99.90;;;;;;5049617;28;20206;-75
2023/05/02 12:10:53;;;;;;;1.05;1.05;;;18.30;99.90;;;;;;5056111;28;21008;-72
2023/05/02 12:13:22;;;;;;;1.00;1.00;;;18.40;99.90;;;;;;5053160;28;20198;-72
2023/05/02 12:15:50;;;;;;;1.10;1.10;;;18.60;99.90;;;;;;5050995;28;20194;-76
2023/05/02 12:18:18;;;;;;;1.10;1.10;;;18.60;99.90;;;;;;5051698;28;20212;-75
2023/05/02 12:20:47;;;;;;;1.15;1.15;;;18.60;99.90;;;;;;5054506;28;20194;-72
2023/05/02 12:23:14;;;;;;;1.25;1.23;;;18.50;99.90;;;;;;5054395;28;20285;-72
2023/05/02 12:25:42;;;;;;;3.53;1.08;;;18.40;99.90;;;;;;5056197;28;20207;-73
2023/05/02 12:28:09;;;;;;;1.30;1.20;;;18.40;99.90;;;;;;5052499;28;20250;-75
2023/05/02 12:30:38;;;;;;;2.55;1.05;;;18.40;99.90;;;;;;5058572;28;20209;-75
2023/05/02 12:33:06;;;;;;;1.17;1.08;;;18.50;99.90;;;;;;5054679;28;20470;-71
2023/05/02 12:35:36;;;;;;;0.95;0.95;;;18.50;99.90;;;;;;5052079;28;20208;-73
2023/05/02 12:38:12;;;;;;;1.17;1.08;;;18.50;99.90;;;;;;5050443;28;20203;-75
2023/05/02 12:40:46;;;;;;;0.95;0.90;;;18.70;99.90;;;;;;5052095;28;20202;-72
2023/05/02 12:43:13;;;;;;;0.90;0.90;;;18.70;99.90;;;;;;5050004;28;20199;-71
2023/05/02 12:45:40;;;;;;;1.48;1.00;;;18.80;99.90;;;;;;5055125;28;20202;-72
2023/05/02 12:48:25;;;;;;;1.00;1.00;;;19.00;99.90;;;;;;5053491;28;20287;-74
2023/05/02 12:50:53;;;;;;;0.70;0.70;;;19.10;99.90;;;;;;5057256;28;20214;-70
2023/05/02 12:53:40;;;;;;;1.20;1.10;;;19.10;99.90;;;;;;5052294;28;20206;-71
2023/05/02 12:56:14;;;;;;;0.90;0.90;;;19.20;99.90;;;;;;5053654;28;20248;-70
2023/05/02 12:58:45;;;;;;;1.30;1.20;;;19.20;99.90;;;;;;5055567;28;20728;-74
2023/05/02 13:01:13;;;;;;;0.90;0.90;;;19.20;99.90;;;;;;5049819;28;20263;-71
2023/05/02 13:03:40;;;;;;;1.00;1.00;;;19.20;99.90;;;;;;5056645;28;21124;-71
2023/05/02 13:06:07;;;;;;;1.30;1.20;;;19.30;99.90;;;;;;5053997;28;20230;-73
2023/05/02 13:08:35;;;;;;;0.98;0.98;;;19.30;99.90;;;;;;5053466;28;20234;-72
2023/05/02 13:11:04;;;;;;;0.80;0.80;;;19.20;99.90;;;;;;5053083;28;20975;-73